createdAt,value
2018-04-14T00:01:37.204Z,99208.12
2018-04-14T00:04:15.096Z,99204.97
2018-04-14T00:06:54.807Z,99197.53
2018-04-14T00:09:37.095Z,99202.22
2018-04-14T00:12:16.143Z,99217.13
2018-04-14T00:14:54.632Z,99223.42
2018-04-14T00:17:36.999Z,99221.27
2018-04-14T00:20:15.185Z,99225.30
2018-04-14T00:22:53.362Z,99224.81
2018-04-14T00:25:33.865Z,99236.72
2018-04-14T00:28:13.056Z,99241.81
2018-04-14T00:30:51.709Z,99235.81
2018-04-14T00:33:31.580Z,99244.05
2018-04-14T00:36:12.261Z,99250.64
2018-04-14T00:38:52.584Z,99259.00
2018-04-14T00:41:33.309Z,99250.74
2018-04-14T00:44:13.451Z,99251.36
2018-04-14T00:46:52.646Z,99259.73
2018-04-14T00:49:31.205Z,99259.94
2018-04-14T00:52:10.955Z,99262.20
2018-04-14T00:54:49.396Z,99264.67
2018-04-14T00:57:27.937Z,99268.17
2018-04-14T01:00:07.297Z,99270.20
2018-04-14T01:02:45.390Z,99262.07
2018-04-14T01:05:23.667Z,99266.44
2018-04-14T01:08:02.966Z,99266.43
2018-04-14T01:10:41.906Z,99270.00
2018-04-14T01:13:23.278Z,99278.27
2018-04-14T01:16:01.574Z,99267.91
2018-04-14T01:18:39.278Z,99283.13
2018-04-14T01:21:19.971Z,99283.95
2018-04-14T01:23:58.143Z,99289.80
2018-04-14T01:26:36.440Z,99306.45
2018-04-14T01:29:16.558Z,99303.39
2018-04-14T01:31:54.584Z,99305.45
2018-04-14T01:34:33.239Z,99314.03
2018-04-14T01:37:12.004Z,99318.25
2018-04-14T01:39:50.645Z,99328.39
2018-04-14T01:42:29.547Z,99328.46
2018-04-14T01:45:09.399Z,99324.95
2018-04-14T01:47:47.740Z,99332.06
2018-04-14T01:50:25.924Z,99336.83
2018-04-14T01:53:08.224Z,99332.13
2018-04-14T01:55:47.405Z,99337.73
2018-04-14T01:58:27.483Z,99341.77
2018-04-14T02:01:06.244Z,99343.45
2018-04-14T02:03:44.305Z,99350.69
2018-04-14T02:06:24.752Z,99349.78
2018-04-14T02:09:05.118Z,99354.89
2018-04-14T02:11:43.761Z,99352.20
2018-04-14T02:14:22.702Z,99349.55
2018-04-14T02:17:01.106Z,99351.53
2018-04-14T02:19:39.792Z,99359.73
2018-04-14T02:22:19.224Z,99358.56
2018-04-14T02:24:58.192Z,99364.80
2018-04-14T02:27:36.521Z,99359.09
2018-04-14T02:30:15.025Z,99363.06
2018-04-14T02:32:53.285Z,99356.80
2018-04-14T02:35:32.434Z,99354.50
2018-04-14T02:38:14.236Z,99360.61
2018-04-14T02:40:53.127Z,99365.58
2018-04-14T02:43:32.954Z,99370.00
2018-04-14T02:46:14.926Z,99370.61
2018-04-14T02:48:52.958Z,99367.15
2018-04-14T02:51:31.703Z,99371.15
2018-04-14T02:54:12.657Z,99371.30
2018-04-14T02:56:50.883Z,99380.16
2018-04-14T02:59:30.660Z,99381.19
2018-04-14T03:02:10.418Z,99381.42
2018-04-14T03:04:48.616Z,99387.73
2018-04-14T03:07:26.653Z,99396.99
2018-04-14T03:10:05.204Z,99405.03
2018-04-14T03:12:43.395Z,99404.92
2018-04-14T03:15:22.157Z,99399.56
2018-04-14T03:18:01.823Z,99367.91
2018-04-14T03:20:40.006Z,99401.20
2018-04-14T03:23:18.805Z,99404.91
2018-04-14T03:25:59.537Z,99418.36
2018-04-14T03:28:37.902Z,99419.55
2018-04-14T03:31:17.034Z,99425.30
2018-04-14T03:33:57.930Z,99422.89
2018-04-14T03:36:36.009Z,99430.78
2018-04-14T03:39:14.172Z,99430.92
2018-04-14T03:41:54.267Z,99427.07
2018-04-14T03:44:32.360Z,99429.43
2018-04-14T03:47:10.414Z,99430.77
2018-04-14T03:49:49.468Z,99435.83
2018-04-14T03:52:28.004Z,99434.42
2018-04-14T03:55:05.911Z,99437.14
2018-04-14T03:57:44.883Z,99439.06
2018-04-14T04:00:22.974Z,99439.55
2018-04-14T04:03:01.754Z,99443.64
2018-04-14T04:05:39.884Z,99449.63
2018-04-14T04:08:17.896Z,99453.23
2018-04-14T04:10:56.047Z,99457.20
2018-04-14T04:13:34.686Z,99451.89
2018-04-14T04:16:13.354Z,99462.91
2018-04-14T04:20:23.933Z,99461.67
2018-04-14T04:24:19.295Z,99470.69
2018-04-14T04:26:58.064Z,99479.44
2018-04-14T04:29:36.181Z,99481.91
2018-04-14T04:32:14.643Z,99476.63
2018-04-14T04:34:52.568Z,99489.64
2018-04-14T04:37:30.720Z,99489.65
2018-04-14T04:40:08.929Z,99499.69
2018-04-14T04:42:46.766Z,99501.47
2018-04-14T04:45:27.723Z,99497.37
2018-04-14T04:48:07.112Z,99508.66
2018-04-14T04:50:48.748Z,99508.47
2018-04-14T04:53:27.101Z,99510.20
2018-04-14T04:56:05.880Z,99513.23
2018-04-14T04:58:44.681Z,99515.84
2018-04-14T05:01:22.440Z,99519.55
2018-04-14T05:04:01.106Z,99526.72
2018-04-14T05:06:39.139Z,99526.36
2018-04-14T05:09:18.185Z,99527.91
2018-04-14T05:11:56.769Z,99531.19
2018-04-14T05:14:35.368Z,99537.72
2018-04-14T05:17:13.172Z,99533.25
2018-04-14T05:19:51.445Z,99539.78
2018-04-14T05:22:33.371Z,99541.91
2018-04-14T05:25:11.149Z,99550.62
2018-04-14T05:27:49.004Z,99549.97
2018-04-14T05:30:28.523Z,99559.63
2018-04-14T05:33:07.870Z,99555.62
2018-04-14T05:35:46.352Z,99556.88
2018-04-14T05:38:25.598Z,99564.01
2018-04-14T05:41:03.182Z,99568.84
2018-04-14T05:43:40.807Z,99570.14
2018-04-14T05:46:19.713Z,99572.51
2018-04-14T05:48:57.509Z,99570.53
2018-04-14T05:51:35.165Z,99571.50
2018-04-14T05:54:17.715Z,99582.91
2018-04-14T05:56:55.984Z,99577.67
2018-04-14T05:59:35.172Z,99587.11
2018-04-14T06:02:18.569Z,99588.97
2018-04-14T06:04:56.429Z,99590.55
2018-04-14T06:07:36.968Z,99598.78
2018-04-14T06:10:15.714Z,99604.28
2018-04-14T06:12:55.096Z,99613.23
2018-04-14T06:15:37.283Z,99612.75
2018-04-14T06:18:16.997Z,99626.64
2018-04-14T06:20:56.411Z,99625.95
2018-04-14T06:23:39.027Z,99632.42
2018-04-14T06:26:19.789Z,99633.06
2018-04-14T06:28:58.568Z,99631.30
2018-04-14T06:31:41.007Z,99635.35
2018-04-14T06:34:20.941Z,99637.78
2018-04-14T06:36:59.793Z,99639.73
2018-04-14T06:39:42.834Z,99650.72
2018-04-14T06:42:21.297Z,99646.12
2018-04-14T06:45:00.888Z,99647.20
2018-04-14T06:51:28.142Z,99648.09
2018-04-14T06:54:16.393Z,99650.25
2018-04-14T06:57:00.892Z,99645.21
2018-04-14T06:59:42.274Z,99642.86
2018-04-14T07:02:26.007Z,99647.05
2018-04-14T07:05:05.833Z,99643.80
2018-04-14T07:07:46.206Z,99647.29
2018-04-14T07:10:24.183Z,99645.91
2018-04-14T07:13:06.663Z,99649.58
2018-04-14T07:15:46.493Z,99649.90
2018-04-14T07:18:25.041Z,99652.02
2018-04-14T07:21:07.664Z,99650.55
2018-04-14T07:23:46.429Z,99648.94
2018-04-14T07:26:28.957Z,99659.05
2018-04-14T07:29:07.813Z,99657.12
2018-04-14T07:31:46.431Z,99663.83
2018-04-14T07:34:29.179Z,99665.55
2018-04-14T07:37:06.971Z,99661.89
2018-04-14T07:39:50.544Z,99666.27
2018-04-14T07:42:31.203Z,99672.08
2018-04-14T07:45:12.869Z,99668.04
2018-04-14T07:47:51.911Z,99663.63
2018-04-14T07:50:33.855Z,99668.33
2018-04-14T07:53:13.155Z,99666.70
2018-04-14T07:55:55.167Z,99663.70
2018-04-14T07:58:34.403Z,99669.82
2018-04-14T08:01:17.006Z,99677.16
2018-04-14T08:03:57.188Z,99668.52
2018-04-14T08:06:38.969Z,99673.52
2018-04-14T08:09:18.734Z,99669.59
2018-04-14T08:12:04.330Z,99680.34
2018-04-14T08:14:47.145Z,99678.34
2018-04-14T08:17:33.433Z,99676.62
2018-04-14T08:20:12.953Z,99679.02
2018-04-14T08:22:56.059Z,99677.05
2018-04-14T08:25:35.907Z,99687.50
2018-04-14T08:28:17.779Z,99682.92
2018-04-14T08:30:58.686Z,99684.77
2018-04-14T08:33:37.314Z,99685.41
2018-04-14T08:36:15.018Z,99686.97
2018-04-14T08:38:53.813Z,99693.58
2018-04-14T08:41:35.716Z,99696.86
2018-04-14T08:44:15.181Z,99692.17
2018-04-14T08:46:54.068Z,99697.20
2018-04-14T08:49:35.048Z,99700.97
2018-04-14T08:52:14.903Z,99694.69
2018-04-14T08:54:57.447Z,99701.55
2018-04-14T08:57:36.494Z,99696.33
2018-04-14T09:00:18.769Z,99698.76
2018-04-14T09:02:57.850Z,99704.21
2018-04-14T09:05:37.602Z,99693.86
2018-04-14T09:08:23.101Z,99702.41
2018-04-14T09:11:02.443Z,99698.45
2018-04-14T09:13:39.963Z,99699.82
2018-04-14T09:16:20.028Z,99681.13
2018-04-14T09:19:01.300Z,99690.05
2018-04-14T09:21:40.101Z,99691.98
2018-04-14T09:24:21.179Z,99687.30
2018-04-14T09:26:59.568Z,99683.20
2018-04-14T09:29:39.422Z,99692.89
2018-04-14T09:32:22.803Z,99686.44
2018-04-14T09:35:07.647Z,99688.84
2018-04-14T09:37:46.210Z,99688.80
2018-04-14T09:40:27.166Z,99695.47
2018-04-14T09:43:06.022Z,99691.45
2018-04-14T09:45:45.616Z,99690.27
2018-04-14T09:48:25.021Z,99690.44
2018-04-14T09:51:03.765Z,99704.59
2018-04-14T09:53:45.301Z,99696.22
2018-04-14T09:56:24.181Z,99696.09
2018-04-14T09:59:02.901Z,99697.13
2018-04-14T10:01:46.843Z,99700.61
2018-04-14T10:04:25.029Z,99698.68
2018-04-14T10:07:06.909Z,99694.55
2018-04-14T10:09:44.945Z,99697.27
2018-04-14T10:12:26.534Z,99701.91
2018-04-14T10:15:05.777Z,99707.92
2018-04-14T10:17:45.808Z,99707.83
2018-04-14T10:20:26.930Z,99716.35
2018-04-14T10:23:10.518Z,99712.45
2018-04-14T10:25:48.541Z,99719.44
2018-04-14T10:28:27.287Z,99721.26
2018-04-14T10:31:07.986Z,99726.14
2018-04-14T10:33:47.736Z,99732.62
2018-04-14T10:36:27.880Z,99732.97
2018-04-14T10:39:11.421Z,99730.67
2018-04-14T10:41:55.242Z,99725.31
2018-04-14T10:44:33.201Z,99720.69
2018-04-14T10:47:14.857Z,99712.52
2018-04-14T10:49:53.219Z,99711.72
2018-04-14T10:52:30.970Z,99712.84
2018-04-14T10:55:12.744Z,99709.64
2018-04-14T10:57:51.064Z,99698.84
2018-04-14T11:00:31.146Z,99709.14
2018-04-14T11:03:13.251Z,99704.87
2018-04-14T11:05:52.625Z,99682.69
2018-04-14T11:08:31.869Z,99710.38
2018-04-14T11:11:17.617Z,99710.24
2018-04-14T11:13:56.221Z,99716.02
2018-04-14T11:16:34.068Z,99707.84
2018-04-14T11:19:15.093Z,99699.81
2018-04-14T11:21:54.378Z,99713.77
2018-04-14T11:24:33.026Z,99709.02
2018-04-14T11:27:15.934Z,99709.75
2018-04-14T11:29:54.049Z,99707.25
2018-04-14T11:32:34.249Z,99707.02
2018-04-14T11:35:14.683Z,99715.40
2018-04-14T11:37:57.767Z,99716.30
2018-04-14T11:40:36.929Z,99716.19
2018-04-14T11:43:16.252Z,99716.60
2018-04-14T11:45:58.320Z,99712.25
2018-04-14T11:48:36.399Z,99719.65
2018-04-14T11:51:20.752Z,99721.82
2018-04-14T11:53:58.976Z,99718.59
2018-04-14T11:56:38.184Z,99718.58
2018-04-14T11:59:20.106Z,99717.82
2018-04-14T12:01:59.629Z,99730.22
2018-04-14T12:04:37.878Z,99722.09
2018-04-14T12:07:20.900Z,99710.95
2018-04-14T12:10:00.633Z,99713.55
2018-04-14T12:12:40.056Z,99721.47
2018-04-14T12:15:21.347Z,99708.80
2018-04-14T12:18:02.838Z,99726.52
2018-04-14T12:20:48.472Z,99716.25
2018-04-14T12:23:27.322Z,99718.53
2018-04-14T12:26:06.689Z,99714.84
2018-04-14T12:28:48.039Z,99718.72
2018-04-14T12:31:27.460Z,99730.12
2018-04-14T12:34:07.186Z,99718.36
2018-04-14T12:36:47.705Z,99715.80
2018-04-14T12:39:27.266Z,99714.81
2018-04-14T12:42:05.694Z,99713.50
2018-04-14T12:44:47.234Z,99717.12
2018-04-14T12:47:27.688Z,99702.22
2018-04-14T12:50:06.248Z,99713.25
2018-04-14T12:52:49.755Z,99716.50
2018-04-14T12:55:28.408Z,99712.28
2018-04-14T12:58:06.624Z,99711.78
2018-04-14T13:00:49.070Z,99704.20
2018-04-14T13:03:27.317Z,99702.41
2018-04-14T13:06:08.642Z,99699.77
2018-04-14T13:08:47.484Z,99697.34
2018-04-14T13:11:26.417Z,99696.87
2018-04-14T13:14:10.864Z,99697.78
2018-04-14T13:16:48.595Z,99704.66
2018-04-14T13:19:27.196Z,99697.81
2018-04-14T13:22:08.297Z,99698.69
2018-04-14T13:24:49.437Z,99699.81
2018-04-14T13:27:28.087Z,99692.77
2018-04-14T13:30:11.434Z,99699.80
2018-04-14T13:32:49.501Z,99696.99
2018-04-14T13:35:32.384Z,99703.30
2018-04-14T13:38:10.905Z,99691.58
2018-04-14T13:40:54.830Z,99694.84
2018-04-14T13:43:33.193Z,99693.99
2018-04-14T13:46:13.796Z,99694.91
2018-04-14T13:48:59.644Z,99690.15
2018-04-14T13:51:49.648Z,99687.33
2018-04-14T13:54:32.317Z,99693.38
2018-04-14T13:57:12.220Z,99685.69
2018-04-14T13:59:51.841Z,99695.66
2018-04-14T14:02:31.835Z,99680.69
2018-04-14T14:05:14.487Z,99682.31
2018-04-14T14:07:52.831Z,99681.70
2018-04-14T14:10:32.976Z,99683.06
2018-04-14T14:13:14.381Z,99682.77
2018-04-14T14:15:54.027Z,99681.59
2018-04-14T14:18:36.777Z,99675.09
2018-04-14T14:21:16.450Z,99680.50
2018-04-14T14:23:59.934Z,99676.86
2018-04-14T14:26:38.173Z,99677.23
2018-04-14T14:29:16.595Z,99681.42
2018-04-14T14:31:58.924Z,99679.97
2018-04-14T14:34:37.024Z,99684.10
2018-04-14T14:37:20.004Z,99683.50
2018-04-14T14:39:57.933Z,99684.67
2018-04-14T14:42:37.658Z,99679.09
2018-04-14T14:45:17.540Z,99678.23
2018-04-14T14:47:59.531Z,99679.47
2018-04-14T14:50:39.653Z,99680.34
2018-04-14T14:53:19.751Z,99671.73
2018-04-14T14:55:58.480Z,99678.24
2018-04-14T14:58:40.630Z,99674.34
2018-04-14T15:01:20.642Z,99670.50
2018-04-14T15:03:58.635Z,99672.91
2018-04-14T15:06:40.730Z,99673.44
2018-04-14T15:09:21.488Z,99676.29
2018-04-14T15:11:59.316Z,99678.28
2018-04-14T15:14:43.638Z,99668.13
2018-04-14T15:17:21.737Z,99669.21
2018-04-14T15:20:01.201Z,99674.45
2018-04-14T15:22:46.432Z,99667.55
2018-04-14T15:25:24.579Z,99666.20
2018-04-14T15:28:02.608Z,99666.29
2018-04-14T15:30:45.881Z,99665.25
2018-04-14T15:33:25.164Z,99668.63
2018-04-14T15:36:07.586Z,99674.45
2018-04-14T15:38:46.092Z,99670.48
2018-04-14T15:41:23.988Z,99668.95
2018-04-14T15:44:04.871Z,99663.59
2018-04-14T15:46:48.423Z,99670.39
2018-04-14T15:49:26.381Z,99669.69
2018-04-14T15:52:04.531Z,99666.88
2018-04-14T15:54:48.435Z,99674.11
2018-04-14T15:57:26.588Z,99675.98
2018-04-14T16:00:06.651Z,99671.34
2018-04-14T16:02:51.486Z,99675.09
2018-04-14T16:05:30.931Z,99673.95
2018-04-14T16:08:14.775Z,99672.38
2018-04-14T16:10:53.438Z,99666.02
2018-04-14T16:13:31.621Z,99660.45
2018-04-14T16:16:13.211Z,99669.48
2018-04-14T16:18:51.493Z,99665.91
2018-04-14T16:21:30.371Z,99661.06
2018-04-14T16:24:09.277Z,99653.02
2018-04-14T16:26:53.317Z,99649.89
2018-04-14T16:29:31.492Z,99649.73
2018-04-14T16:32:11.916Z,99643.64
2018-04-14T16:34:52.353Z,99642.81
2018-04-14T16:37:35.915Z,99640.71
2018-04-14T16:40:13.909Z,99638.72
2018-04-14T16:42:51.973Z,99640.42
2018-04-14T16:45:33.277Z,99638.09
2018-04-14T16:48:11.277Z,99636.45
2018-04-14T16:50:49.362Z,99630.77
2018-04-14T16:53:31.371Z,99632.23
2018-04-14T16:56:10.467Z,99625.45
2018-04-14T16:58:52.796Z,99623.58
2018-04-14T17:01:35.535Z,99622.70
2018-04-14T17:04:15.310Z,99620.80
2018-04-14T17:06:59.498Z,99621.48
2018-04-14T17:09:37.698Z,99620.75
2018-04-14T17:12:19.295Z,99623.24
2018-04-14T17:15:01.467Z,99623.97
2018-04-14T17:17:40.185Z,99630.55
2018-04-14T17:20:19.642Z,99624.19
2018-04-14T17:23:00.640Z,99618.69
2018-04-14T17:25:43.753Z,99616.88
2018-04-14T17:28:23.250Z,99619.25
2018-04-14T17:31:14.439Z,99617.88
2018-04-14T17:33:57.112Z,99622.14
2018-04-14T17:36:37.698Z,99623.31
2018-04-14T17:39:18.357Z,99631.34
2018-04-14T17:41:58.066Z,99635.14
2018-04-14T17:44:41.038Z,99627.30
2018-04-14T17:47:20.439Z,99627.09
2018-04-14T17:49:59.769Z,99629.59
2018-04-14T17:52:39.379Z,99630.84
2018-04-14T17:55:22.084Z,99630.00
2018-04-14T17:58:00.907Z,99637.73
2018-04-14T18:00:41.527Z,99629.40
2018-04-14T18:03:23.517Z,99643.05
2018-04-14T18:06:02.827Z,99634.17
2018-04-14T18:08:52.042Z,99640.47
2018-04-14T18:11:30.021Z,99639.30
2018-04-14T18:14:09.750Z,99638.94
2018-04-14T18:16:48.707Z,99640.78
2018-04-14T18:19:26.971Z,99645.22
2018-04-14T18:22:07.746Z,99648.94
2018-04-14T18:24:46.987Z,99652.66
2018-04-14T18:27:24.953Z,99657.17
2018-04-14T18:30:07.372Z,99660.55
2018-04-14T18:32:45.766Z,99660.73
2018-04-14T18:35:25.986Z,99666.13
2018-04-14T18:38:08.515Z,99663.61
2018-04-14T18:40:48.102Z,99659.31
2018-04-14T18:43:26.796Z,99662.39
2018-04-14T18:46:10.279Z,99663.73
2018-04-14T18:48:48.361Z,99667.66
2018-04-14T18:51:27.277Z,99666.84
2018-04-14T18:54:10.029Z,99671.38
2018-04-14T18:56:49.604Z,99678.35
2018-04-14T18:59:28.619Z,99684.02
2018-04-14T19:02:11.187Z,99686.59
2018-04-14T19:04:49.791Z,99691.70
2018-04-14T19:07:29.534Z,99695.43
2018-04-14T19:10:11.419Z,99698.32
2018-04-14T19:12:49.504Z,99689.50
2018-04-14T19:15:29.526Z,99696.20
2018-04-14T19:18:12.423Z,99695.72
2018-04-14T19:20:50.692Z,99696.61
2018-04-14T19:23:32.160Z,99695.58
2018-04-14T19:26:17.851Z,99702.75
2018-04-14T19:28:56.125Z,99700.57
2018-04-14T19:31:36.053Z,99703.36
2018-04-14T19:34:14.332Z,99702.38
2018-04-14T19:36:53.456Z,99701.34
2018-04-14T19:39:36.233Z,99698.03
2018-04-14T19:42:14.474Z,99698.20
2018-04-14T19:44:55.778Z,99689.52
2018-04-14T19:47:35.059Z,99689.05
2018-04-14T19:50:14.095Z,99692.81
2018-04-14T19:52:56.599Z,99697.27
2018-04-14T19:55:35.075Z,99689.81
2018-04-14T19:58:15.205Z,99688.75
2018-04-14T20:00:58.390Z,99685.86
2018-04-14T20:03:37.870Z,99692.28
2018-04-14T20:06:15.957Z,99694.69
2018-04-14T20:08:56.639Z,99704.09
2018-04-14T20:11:37.839Z,99700.55
2018-04-14T20:14:19.700Z,99699.80
2018-04-14T20:17:01.938Z,99699.23
2018-04-14T20:19:41.044Z,99699.06
2018-04-14T20:22:21.393Z,99691.61
2018-04-14T20:24:59.984Z,99692.72
2018-04-14T20:27:39.421Z,99695.47
2018-04-14T20:30:22.203Z,99690.16
2018-04-14T20:33:00.924Z,99689.89
2018-04-14T20:35:40.077Z,99695.21
2018-04-14T20:38:22.658Z,99689.02
2018-04-14T20:41:01.878Z,99694.93
2018-04-14T20:43:41.335Z,99693.19
2018-04-14T20:46:24.913Z,99682.45
2018-04-14T20:49:03.045Z,99686.74
2018-04-14T20:51:42.036Z,99684.02
2018-04-14T20:54:24.614Z,99681.20
2018-04-14T20:57:02.608Z,99684.17
2018-04-14T20:59:43.811Z,99683.61
2018-04-14T21:02:24.233Z,99679.57
2018-04-14T21:05:06.636Z,99688.42
2018-04-14T21:07:47.910Z,99686.59
2018-04-14T21:10:29.148Z,99681.94
2018-04-14T21:13:11.276Z,99680.95
2018-04-14T21:15:54.048Z,99682.84
2018-04-14T21:18:35.487Z,99686.45
2018-04-14T21:24:05.475Z,99693.23
2018-04-14T21:26:49.914Z,99691.69
2018-04-14T21:29:31.645Z,99689.63
2018-04-14T21:32:13.511Z,99685.02
2018-04-14T21:34:54.803Z,99684.83
2018-04-14T21:37:36.765Z,99679.25
2018-04-14T21:40:18.317Z,99679.88
2018-04-14T21:45:49.854Z,99685.57
2018-04-14T21:48:33.076Z,99682.52
2018-04-14T21:51:15.290Z,99675.16
2018-04-14T21:53:57.505Z,99675.36
2018-04-14T21:56:39.050Z,99674.80
2018-04-14T21:59:19.827Z,99676.13
2018-04-14T22:02:07.248Z,99677.86
2018-04-14T22:04:51.441Z,99671.23
2018-04-14T22:07:33.784Z,99683.82
2018-04-14T22:10:13.009Z,99679.28
2018-04-14T22:12:55.160Z,99681.20
2018-04-14T22:15:33.966Z,99675.15
2018-04-14T22:18:12.294Z,99671.34
2018-04-14T22:20:55.347Z,99666.48
2018-04-14T22:23:33.613Z,99669.05
2018-04-14T22:26:13.281Z,99672.81
2018-04-14T22:28:55.819Z,99670.22
2018-04-14T22:31:34.951Z,99668.08
2018-04-14T22:34:15.278Z,99658.75
2018-04-14T22:36:54.909Z,99655.03
2018-04-14T22:39:35.182Z,99654.63
2018-04-14T22:42:17.183Z,99653.61
2018-04-14T22:44:55.836Z,99654.91
2018-04-14T22:47:35.694Z,99649.52
2018-04-14T22:50:17.965Z,99654.16
2018-04-14T22:52:56.562Z,99652.69
2018-04-14T22:55:39.110Z,99650.66
2018-04-14T22:58:17.243Z,99650.52
2018-04-14T23:00:56.900Z,99653.84
2018-04-14T23:03:38.552Z,99647.02
2018-04-14T23:06:16.458Z,99662.10
2018-04-14T23:08:54.559Z,99653.57
2018-04-14T23:11:33.777Z,99649.94
2018-04-14T23:14:11.917Z,99646.84
2018-04-14T23:16:49.840Z,99641.84
2018-04-14T23:19:29.185Z,99632.73
2018-04-14T23:22:08.397Z,99629.03
2018-04-14T23:24:47.658Z,99623.77
2018-04-14T23:27:25.864Z,99622.84
2018-04-14T23:30:03.457Z,99625.48
2018-04-14T23:32:41.810Z,99615.14
2018-04-14T23:35:23.713Z,99619.13
2018-04-14T23:38:02.649Z,99617.23
2018-04-14T23:40:42.312Z,99610.38
2018-04-14T23:43:24.653Z,99606.39
2018-04-14T23:46:03.101Z,99603.00
2018-04-14T23:48:41.882Z,99600.73
2018-04-14T23:51:24.978Z,99604.11
2018-04-14T23:54:03.067Z,99591.83
2018-04-14T23:56:40.932Z,99596.43
2018-04-14T23:59:20.509Z,99595.28
